sensor_id;sensor_type;location;lat;lon;timestamp;temperature;humidity
1329;DHT22;658;48.820;9.354;2023-05-16T00:01:55;23.80;48.80
1329;DHT22;658;48.820;9.354;2023-05-16T00:05:56;23.80;48.50
1329;DHT22;658;48.820;9.354;2023-05-16T00:09:59;23.80;48.50
1329;DHT22;658;48.820;9.354;2023-05-16T00:14:00;23.80;48.60
1329;DHT22;658;48.820;9.354;2023-05-16T00:18:00;23.80;48.60
1329;DHT22;658;48.820;9.354;2023-05-16T00:22:01;23.80;48.50
1329;DHT22;658;48.820;9.354;2023-05-16T00:26:03;23.70;48.50
1329;DHT22;658;48.820;9.354;2023-05-16T00:30:04;23.70;48.40
1329;DHT22;658;48.820;9.354;2023-05-16T00:34:08;23.70;48.50
1329;DHT22;658;48.820;9.354;2023-05-16T00:38:11;23.70;49.00
1329;DHT22;658;48.820;9.354;2023-05-16T00:42:12;23.70;48.50
1329;DHT22;658;48.820;9.354;2023-05-16T00:46:14;23.70;48.50
1329;DHT22;658;48.820;9.354;2023-05-16T00:50:15;23.70;48.50
1329;DHT22;658;48.820;9.354;2023-05-16T00:54:16;23.60;49.00
1329;DHT22;658;48.820;9.354;2023-05-16T00:58:18;23.60;48.50
1329;DHT22;658;48.820;9.354;2023-05-16T01:02:18;23.60;48.60
1329;DHT22;658;48.820;9.354;2023-05-16T01:06:22;23.60;48.60
1329;DHT22;658;48.820;9.354;2023-05-16T01:10:23;23.60;48.60
1329;DHT22;658;48.820;9.354;2023-05-16T01:14:37;23.60;48.60
1329;DHT22;658;48.820;9.354;2023-05-16T01:18:54;23.60;48.60
1329;DHT22;658;48.820;9.354;2023-05-16T01:23:24;23.60;48.60
1329;DHT22;658;48.820;9.354;2023-05-16T01:27:26;23.50;48.60
1329;DHT22;658;48.820;9.354;2023-05-16T01:31:29;23.50;48.60
1329;DHT22;658;48.820;9.354;2023-05-16T01:35:30;23.50;48.60
1329;DHT22;658;48.820;9.354;2023-05-16T01:39:51;23.50;48.60
1329;DHT22;658;48.820;9.354;2023-05-16T01:44:04;23.50;48.60
1329;DHT22;658;48.820;9.354;2023-05-16T01:48:13;23.50;48.70
1329;DHT22;658;48.820;9.354;2023-05-16T01:52:24;23.50;48.70
1329;DHT22;658;48.820;9.354;2023-05-16T01:56:27;23.50;48.60
1329;DHT22;658;48.820;9.354;2023-05-16T02:00:30;23.40;48.50
1329;DHT22;658;48.820;9.354;2023-05-16T02:04:31;23.40;48.60
1329;DHT22;658;48.820;9.354;2023-05-16T02:08:31;23.40;48.60
1329;DHT22;658;48.820;9.354;2023-05-16T02:12:33;23.40;48.60
1329;DHT22;658;48.820;9.354;2023-05-16T02:16:33;23.30;48.60
1329;DHT22;658;48.820;9.354;2023-05-16T02:20:34;23.40;48.60
1329;DHT22;658;48.820;9.354;2023-05-16T02:24:35;23.30;48.60
1329;DHT22;658;48.820;9.354;2023-05-16T02:28:36;23.30;48.60
1329;DHT22;658;48.820;9.354;2023-05-16T02:32:38;23.30;48.70
1329;DHT22;658;48.820;9.354;2023-05-16T02:36:38;23.30;48.60
1329;DHT22;658;48.820;9.354;2023-05-16T02:40:39;23.30;48.60
1329;DHT22;658;48.820;9.354;2023-05-16T02:44:39;23.30;48.60
1329;DHT22;658;48.820;9.354;2023-05-16T02:48:40;23.30;48.60
1329;DHT22;658;48.820;9.354;2023-05-16T02:52:41;23.30;48.60
1329;DHT22;658;48.820;9.354;2023-05-16T02:56:41;23.30;48.60
1329;DHT22;658;48.820;9.354;2023-05-16T03:00:44;23.30;48.60
1329;DHT22;658;48.820;9.354;2023-05-16T03:04:45;23.20;48.50
1329;DHT22;658;48.820;9.354;2023-05-16T03:08:45;23.20;48.50
1329;DHT22;658;48.820;9.354;2023-05-16T03:12:46;23.20;48.60
1329;DHT22;658;48.820;9.354;2023-05-16T03:16:47;23.20;48.50
1329;DHT22;658;48.820;9.354;2023-05-16T03:20:49;23.20;48.60
1329;DHT22;658;48.820;9.354;2023-05-16T03:24:52;23.20;48.60
1329;DHT22;658;48.820;9.354;2023-05-16T03:28:52;23.20;48.60
1329;DHT22;658;48.820;9.354;2023-05-16T03:32:54;23.20;48.60
1329;DHT22;658;48.820;9.354;2023-05-16T03:36:57;23.20;49.20
1329;DHT22;658;48.820;9.354;2023-05-16T03:40:57;23.20;48.60
1329;DHT22;658;48.820;9.354;2023-05-16T03:44:58;23.10;48.60
1329;DHT22;658;48.820;9.354;2023-05-16T03:48:58;23.10;48.60
1329;DHT22;658;48.820;9.354;2023-05-16T03:52:59;23.10;48.60
1329;DHT22;658;48.820;9.354;2023-05-16T03:57:00;23.10;48.60
1329;DHT22;658;48.820;9.354;2023-05-16T04:01:00;23.10;48.60
1329;DHT22;658;48.820;9.354;2023-05-16T04:05:01;23.10;48.60
1329;DHT22;658;48.820;9.354;2023-05-16T04:09:02;23.10;48.60
1329;DHT22;658;48.820;9.354;2023-05-16T04:13:03;23.10;48.60
1329;DHT22;658;48.820;9.354;2023-05-16T04:17:06;23.10;48.70
1329;DHT22;658;48.820;9.354;2023-05-16T04:21:06;23.10;48.60
1329;DHT22;658;48.820;9.354;2023-05-16T04:25:10;23.10;48.60
1329;DHT22;658;48.820;9.354;2023-05-16T04:29:11;23.00;48.60
1329;DHT22;658;48.820;9.354;2023-05-16T04:33:13;23.10;48.70
1329;DHT22;658;48.820;9.354;2023-05-16T04:37:14;23.10;48.60
1329;DHT22;658;48.820;9.354;2023-05-16T04:41:17;23.10;48.60
1329;DHT22;658;48.820;9.354;2023-05-16T04:45:17;23.00;48.60
1329;DHT22;658;48.820;9.354;2023-05-16T04:49:18;23.00;48.60
1329;DHT22;658;48.820;9.354;2023-05-16T04:53:19;23.10;48.70
1329;DHT22;658;48.820;9.354;2023-05-16T04:57:20;23.00;48.60
1329;DHT22;658;48.820;9.354;2023-05-16T05:01:23;23.00;48.60
1329;DHT22;658;48.820;9.354;2023-05-16T05:05:23;23.00;48.60
1329;DHT22;658;48.820;9.354;2023-05-16T05:09:24;23.00;48.60
1329;DHT22;658;48.820;9.354;2023-05-16T05:13:27;23.00;48.60
1329;DHT22;658;48.820;9.354;2023-05-16T05:17:28;23.00;48.60
1329;DHT22;658;48.820;9.354;2023-05-16T05:21:29;23.00;48.60
1329;DHT22;658;48.820;9.354;2023-05-16T05:25:30;23.00;48.60
1329;DHT22;658;48.820;9.354;2023-05-16T05:29:33;23.00;48.60
1329;DHT22;658;48.820;9.354;2023-05-16T05:33:33;23.00;48.60
1329;DHT22;658;48.820;9.354;2023-05-16T05:37:34;23.00;48.70
1329;DHT22;658;48.820;9.354;2023-05-16T05:41:36;23.00;48.70
1329;DHT22;658;48.820;9.354;2023-05-16T05:45:37;23.00;48.80
1329;DHT22;658;48.820;9.354;2023-05-16T05:49:37;23.00;48.90
1329;DHT22;658;48.820;9.354;2023-05-16T05:53:39;23.00;49.00
1329;DHT22;658;48.820;9.354;2023-05-16T05:57:39;23.00;49.00
1329;DHT22;658;48.820;9.354;2023-05-16T06:01:40;23.00;49.00
1329;DHT22;658;48.820;9.354;2023-05-16T06:05:41;23.00;49.00
1329;DHT22;658;48.820;9.354;2023-05-16T06:09:44;23.00;49.10
1329;DHT22;658;48.820;9.354;2023-05-16T06:13:45;23.00;49.10
1329;DHT22;658;48.820;9.354;2023-05-16T06:17:45;23.00;49.00
1329;DHT22;658;48.820;9.354;2023-05-16T06:21:49;23.00;49.10
1329;DHT22;658;48.820;9.354;2023-05-16T06:25:49;23.00;49.00
1329;DHT22;658;48.820;9.354;2023-05-16T06:29:50;23.00;49.10
1329;DHT22;658;48.820;9.354;2023-05-16T06:33:53;23.00;49.00
1329;DHT22;658;48.820;9.354;2023-05-16T06:37:53;23.00;49.00
1329;DHT22;658;48.820;9.354;2023-05-16T06:41:56;23.00;49.00
1329;DHT22;658;48.820;9.354;2023-05-16T06:45:59;23.00;49.10
1329;DHT22;658;48.820;9.354;2023-05-16T06:50:00;23.00;49.10
1329;DHT22;658;48.820;9.354;2023-05-16T06:54:00;23.00;49.10
1329;DHT22;658;48.820;9.354;2023-05-16T06:58:01;23.00;49.10
1329;DHT22;658;48.820;9.354;2023-05-16T07:02:02;23.00;49.10
1329;DHT22;658;48.820;9.354;2023-05-16T07:06:03;23.00;49.20
1329;DHT22;658;48.820;9.354;2023-05-16T07:10:03;23.10;49.20
1329;DHT22;658;48.820;9.354;2023-05-16T07:14:06;23.00;49.10
1329;DHT22;658;48.820;9.354;2023-05-16T07:18:10;23.10;49.10
1329;DHT22;658;48.820;9.354;2023-05-16T07:22:10;23.10;49.10
1329;DHT22;658;48.820;9.354;2023-05-16T07:26:11;23.10;49.10
1329;DHT22;658;48.820;9.354;2023-05-16T07:30:13;23.10;49.10
1329;DHT22;658;48.820;9.354;2023-05-16T07:34:13;23.10;49.10
1329;DHT22;658;48.820;9.354;2023-05-16T07:38:16;23.10;49.00
1329;DHT22;658;48.820;9.354;2023-05-16T07:42:17;23.10;48.90
1329;DHT22;658;48.820;9.354;2023-05-16T07:46:17;23.20;49.00
1329;DHT22;658;48.820;9.354;2023-05-16T07:50:18;23.10;48.90
1329;DHT22;658;48.820;9.354;2023-05-16T07:54:18;23.20;49.00
1329;DHT22;658;48.820;9.354;2023-05-16T07:58:19;23.20;49.00
1329;DHT22;658;48.820;9.354;2023-05-16T08:02:21;23.20;49.00
1329;DHT22;658;48.820;9.354;2023-05-16T08:06:24;23.20;49.00
1329;DHT22;658;48.820;9.354;2023-05-16T08:10:24;23.30;49.00
1329;DHT22;658;48.820;9.354;2023-05-16T08:14:25;23.30;49.00
1329;DHT22;658;48.820;9.354;2023-05-16T08:18:25;23.30;48.90
1329;DHT22;658;48.820;9.354;2023-05-16T08:22:29;23.30;49.00
1329;DHT22;658;48.820;9.354;2023-05-16T08:26:29;23.30;48.90
1329;DHT22;658;48.820;9.354;2023-05-16T08:30:30;23.30;48.90
1329;DHT22;658;48.820;9.354;2023-05-16T08:34:31;23.30;49.00
1329;DHT22;658;48.820;9.354;2023-05-16T08:38:32;23.30;49.00
1329;DHT22;658;48.820;9.354;2023-05-16T08:42:35;23.30;49.00
1329;DHT22;658;48.820;9.354;2023-05-16T08:46:40;23.30;48.90
1329;DHT22;658;48.820;9.354;2023-05-16T08:50:41;23.30;48.90
1329;DHT22;658;48.820;9.354;2023-05-16T08:54:44;23.30;49.00
1329;DHT22;658;48.820;9.354;2023-05-16T08:58:45;23.20;48.90
1329;DHT22;658;48.820;9.354;2023-05-16T09:02:46;23.20;48.90
1329;DHT22;658;48.820;9.354;2023-05-16T09:06:47;23.20;48.90
1329;DHT22;658;48.820;9.354;2023-05-16T09:10:47;23.20;48.90
1329;DHT22;658;48.820;9.354;2023-05-16T09:14:48;23.20;48.80
1329;DHT22;658;48.820;9.354;2023-05-16T09:18:54;23.20;48.80
1329;DHT22;658;48.820;9.354;2023-05-16T09:22:59;23.20;48.90
1329;DHT22;658;48.820;9.354;2023-05-16T09:27:10;23.20;48.80
1329;DHT22;658;48.820;9.354;2023-05-16T09:31:25;23.20;48.80
1329;DHT22;658;48.820;9.354;2023-05-16T09:35:26;23.20;48.80
1329;DHT22;658;48.820;9.354;2023-05-16T09:39:26;23.20;48.80
1329;DHT22;658;48.820;9.354;2023-05-16T09:43:27;23.20;48.80
1329;DHT22;658;48.820;9.354;2023-05-16T09:47:30;23.20;48.80
1329;DHT22;658;48.820;9.354;2023-05-16T09:51:31;23.20;48.80
1329;DHT22;658;48.820;9.354;2023-05-16T09:55:32;23.30;48.80
1329;DHT22;658;48.820;9.354;2023-05-16T09:59:38;23.30;48.80
1329;DHT22;658;48.820;9.354;2023-05-16T10:03:40;23.30;48.80
1329;DHT22;658;48.820;9.354;2023-05-16T10:07:44;23.30;48.80
1329;DHT22;658;48.820;9.354;2023-05-16T10:11:45;23.30;48.90
1329;DHT22;658;48.820;9.354;2023-05-16T10:15:48;23.30;48.90
1329;DHT22;658;48.820;9.354;2023-05-16T10:19:49;23.30;48.90
1329;DHT22;658;48.820;9.354;2023-05-16T10:23:53;23.30;48.80
1329;DHT22;658;48.820;9.354;2023-05-16T10:27:56;23.30;48.80
1329;DHT22;658;48.820;9.354;2023-05-16T10:31:59;23.30;48.80
1329;DHT22;658;48.820;9.354;2023-05-16T10:36:03;23.30;48.90
1329;DHT22;658;48.820;9.354;2023-05-16T10:40:05;23.30;49.00
1329;DHT22;658;48.820;9.354;2023-05-16T10:44:13;23.30;48.90
1329;DHT22;658;48.820;9.354;2023-05-16T10:48:15;23.30;49.00
1329;DHT22;658;48.820;9.354;2023-05-16T10:52:15;23.30;48.90
1329;DHT22;658;48.820;9.354;2023-05-16T10:56:22;23.30;48.90
1329;DHT22;658;48.820;9.354;2023-05-16T11:00:23;23.30;48.90
1329;DHT22;658;48.820;9.354;2023-05-16T11:04:53;23.30;48.80
1329;DHT22;658;48.820;9.354;2023-05-16T11:13:10;23.30;48.80
1329;DHT22;658;48.820;9.354;2023-05-16T11:21:15;23.40;48.80
1329;DHT22;658;48.820;9.354;2023-05-16T11:25:35;23.40;48.90
1329;DHT22;658;48.820;9.354;2023-05-16T11:29:40;23.40;48.90
1329;DHT22;658;48.820;9.354;2023-05-16T11:33:43;23.40;48.80
1329;DHT22;658;48.820;9.354;2023-05-16T11:37:44;23.40;48.70
1329;DHT22;658;48.820;9.354;2023-05-16T11:41:46;23.40;48.70
1329;DHT22;658;48.820;9.354;2023-05-16T11:45:53;23.40;48.60
1329;DHT22;658;48.820;9.354;2023-05-16T11:49:57;23.40;48.70
1329;DHT22;658;48.820;9.354;2023-05-16T11:53:57;23.40;48.70
1329;DHT22;658;48.820;9.354;2023-05-16T11:58:00;23.40;48.80
1329;DHT22;658;48.820;9.354;2023-05-16T12:02:02;23.40;49.30
1329;DHT22;658;48.820;9.354;2023-05-16T12:06:07;23.40;48.80
1329;DHT22;658;48.820;9.354;2023-05-16T12:10:09;23.40;48.80
1329;DHT22;658;48.820;9.354;2023-05-16T12:14:11;23.40;48.80
1329;DHT22;658;48.820;9.354;2023-05-16T12:18:15;23.40;48.80
1329;DHT22;658;48.820;9.354;2023-05-16T12:22:16;23.30;48.90
1329;DHT22;658;48.820;9.354;2023-05-16T12:26:24;23.40;48.80
1329;DHT22;658;48.820;9.354;2023-05-16T12:30:27;23.40;48.80
1329;DHT22;658;48.820;9.354;2023-05-16T12:34:28;23.30;48.70
1329;DHT22;658;48.820;9.354;2023-05-16T12:38:29;23.40;48.80
1329;DHT22;658;48.820;9.354;2023-05-16T12:42:33;23.40;48.80
1329;DHT22;658;48.820;9.354;2023-05-16T12:46:33;23.40;48.70
1329;DHT22;658;48.820;9.354;2023-05-16T12:50:34;23.40;48.70
1329;DHT22;658;48.820;9.354;2023-05-16T12:54:37;23.40;48.60
1329;DHT22;658;48.820;9.354;2023-05-16T12:58:38;23.40;48.70
1329;DHT22;658;48.820;9.354;2023-05-16T13:02:39;23.40;48.80
1329;DHT22;658;48.820;9.354;2023-05-16T13:06:42;23.40;48.50
1329;DHT22;658;48.820;9.354;2023-05-16T13:10:44;23.50;48.60
1329;DHT22;658;48.820;9.354;2023-05-16T13:14:47;23.50;48.50
1329;DHT22;658;48.820;9.354;2023-05-16T13:18:47;23.40;48.40
1329;DHT22;658;48.820;9.354;2023-05-16T13:22:48;23.40;48.40
1329;DHT22;658;48.820;9.354;2023-05-16T13:26:49;23.40;48.50
1329;DHT22;658;48.820;9.354;2023-05-16T13:30:49;23.40;48.60
1329;DHT22;658;48.820;9.354;2023-05-16T13:34:51;23.40;48.50
1329;DHT22;658;48.820;9.354;2023-05-16T13:38:51;23.40;48.50
1329;DHT22;658;48.820;9.354;2023-05-16T13:42:52;23.40;48.50
1329;DHT22;658;48.820;9.354;2023-05-16T13:46:52;23.40;48.50
1329;DHT22;658;48.820;9.354;2023-05-16T13:50:53;23.40;48.50
1329;DHT22;658;48.820;9.354;2023-05-16T13:54:55;23.40;48.60
1329;DHT22;658;48.820;9.354;2023-05-16T13:58:56;23.40;48.60
1329;DHT22;658;48.820;9.354;2023-05-16T14:02:57;23.40;48.70
1329;DHT22;658;48.820;9.354;2023-05-16T14:06:57;23.40;48.70
1329;DHT22;658;48.820;9.354;2023-05-16T14:10:58;23.40;48.60
1329;DHT22;658;48.820;9.354;2023-05-16T14:14:58;23.40;48.50
1329;DHT22;658;48.820;9.354;2023-05-16T14:19:01;23.40;48.40
1329;DHT22;658;48.820;9.354;2023-05-16T14:23:02;23.40;48.60
1329;DHT22;658;48.820;9.354;2023-05-16T14:27:03;23.40;48.60
1329;DHT22;658;48.820;9.354;2023-05-16T14:31:04;23.40;48.50
1329;DHT22;658;48.820;9.354;2023-05-16T14:35:05;23.40;48.40
1329;DHT22;658;48.820;9.354;2023-05-16T14:39:06;23.40;48.40
1329;DHT22;658;48.820;9.354;2023-05-16T14:43:08;23.40;48.40
1329;DHT22;658;48.820;9.354;2023-05-16T14:47:08;23.40;48.30
1329;DHT22;658;48.820;9.354;2023-05-16T14:51:09;23.30;48.30
1329;DHT22;658;48.820;9.354;2023-05-16T14:55:13;23.40;48.40
1329;DHT22;658;48.820;9.354;2023-05-16T14:59:15;23.30;48.30
1329;DHT22;658;48.820;9.354;2023-05-16T15:03:18;23.30;48.30
1329;DHT22;658;48.820;9.354;2023-05-16T15:07:21;23.30;48.30
1329;DHT22;658;48.820;9.354;2023-05-16T15:11:22;23.30;48.30
1329;DHT22;658;48.820;9.354;2023-05-16T15:15:22;23.30;48.40
1329;DHT22;658;48.820;9.354;2023-05-16T15:19:25;23.30;48.50
1329;DHT22;658;48.820;9.354;2023-05-16T15:23:26;23.30;48.50
1329;DHT22;658;48.820;9.354;2023-05-16T15:27:27;23.30;48.60
1329;DHT22;658;48.820;9.354;2023-05-16T15:31:30;23.20;48.50
1329;DHT22;658;48.820;9.354;2023-05-16T15:35:31;23.20;48.70
1329;DHT22;658;48.820;9.354;2023-05-16T15:39:32;23.20;48.80
1329;DHT22;658;48.820;9.354;2023-05-16T15:43:32;23.20;48.60
1329;DHT22;658;48.820;9.354;2023-05-16T15:47:33;23.20;48.70
1329;DHT22;658;48.820;9.354;2023-05-16T15:51:34;23.10;48.60
1329;DHT22;658;48.820;9.354;2023-05-16T15:55:34;23.20;48.70
1329;DHT22;658;48.820;9.354;2023-05-16T15:59:36;23.10;48.70
1329;DHT22;658;48.820;9.354;2023-05-16T16:03:37;23.10;48.70
1329;DHT22;658;48.820;9.354;2023-05-16T16:07:38;23.10;48.80
1329;DHT22;658;48.820;9.354;2023-05-16T16:11:38;23.10;48.80
1329;DHT22;658;48.820;9.354;2023-05-16T16:15:39;23.10;49.40
1329;DHT22;658;48.820;9.354;2023-05-16T16:19:41;23.10;48.80
1329;DHT22;658;48.820;9.354;2023-05-16T16:23:42;23.10;48.80
1329;DHT22;658;48.820;9.354;2023-05-16T16:27:42;23.10;48.70
1329;DHT22;658;48.820;9.354;2023-05-16T16:31:43;23.10;48.80
1329;DHT22;658;48.820;9.354;2023-05-16T16:35:43;23.00;48.70
1329;DHT22;658;48.820;9.354;2023-05-16T16:39:47;23.00;48.60
1329;DHT22;658;48.820;9.354;2023-05-16T16:43:47;23.00;48.70
1329;DHT22;658;48.820;9.354;2023-05-16T16:47:48;23.00;48.70
1329;DHT22;658;48.820;9.354;2023-05-16T16:51:48;23.00;48.70
1329;DHT22;658;48.820;9.354;2023-05-16T16:55:51;23.00;48.70
1329;DHT22;658;48.820;9.354;2023-05-16T16:59:52;23.00;48.70
1329;DHT22;658;48.820;9.354;2023-05-16T17:03:52;23.00;48.70
1329;DHT22;658;48.820;9.354;2023-05-16T17:07:54;23.00;49.00
1329;DHT22;658;48.820;9.354;2023-05-16T17:11:54;22.90;48.90
1329;DHT22;658;48.820;9.354;2023-05-16T17:15:55;22.90;49.00
1329;DHT22;658;48.820;9.354;2023-05-16T17:19:56;23.00;49.40
1329;DHT22;658;48.820;9.354;2023-05-16T17:23:57;23.00;49.20
1329;DHT22;658;48.820;9.354;2023-05-16T17:27:59;23.00;49.10
1329;DHT22;658;48.820;9.354;2023-05-16T17:32:03;23.00;49.00
1329;DHT22;658;48.820;9.354;2023-05-16T17:36:06;23.10;49.10
1329;DHT22;658;48.820;9.354;2023-05-16T17:40:07;23.10;48.80
1329;DHT22;658;48.820;9.354;2023-05-16T17:44:15;23.10;48.80
1329;DHT22;658;48.820;9.354;2023-05-16T17:48:16;23.10;48.70
1329;DHT22;658;48.820;9.354;2023-05-16T17:52:16;23.20;48.80
1329;DHT22;658;48.820;9.354;2023-05-16T17:56:21;23.20;48.70
1329;DHT22;658;48.820;9.354;2023-05-16T18:00:21;23.20;48.50
1329;DHT22;658;48.820;9.354;2023-05-16T18:04:25;23.20;48.40
1329;DHT22;658;48.820;9.354;2023-05-16T18:08:28;23.30;48.50
1329;DHT22;658;48.820;9.354;2023-05-16T18:12:29;23.30;48.40
1329;DHT22;658;48.820;9.354;2023-05-16T18:16:30;23.30;48.30
1329;DHT22;658;48.820;9.354;2023-05-16T18:20:31;23.20;48.10
1329;DHT22;658;48.820;9.354;2023-05-16T18:24:33;23.30;48.20
1329;DHT22;658;48.820;9.354;2023-05-16T18:28:33;23.20;48.00
1329;DHT22;658;48.820;9.354;2023-05-16T18:32:34;23.20;48.00
1329;DHT22;658;48.820;9.354;2023-05-16T18:36:35;23.20;48.00
1329;DHT22;658;48.820;9.354;2023-05-16T18:40:36;23.20;48.00
1329;DHT22;658;48.820;9.354;2023-05-16T18:44:37;23.20;48.20
1329;DHT22;658;48.820;9.354;2023-05-16T18:48:37;23.20;48.10
1329;DHT22;658;48.820;9.354;2023-05-16T18:52:38;23.20;48.20
1329;DHT22;658;48.820;9.354;2023-05-16T18:56:39;23.20;48.00
1329;DHT22;658;48.820;9.354;2023-05-16T19:00:41;23.20;48.00
1329;DHT22;658;48.820;9.354;2023-05-16T19:04:42;23.20;48.00
1329;DHT22;658;48.820;9.354;2023-05-16T19:08:42;23.20;47.90
1329;DHT22;658;48.820;9.354;2023-05-16T19:12:43;23.30;48.00
1329;DHT22;658;48.820;9.354;2023-05-16T19:16:48;23.30;48.00
1329;DHT22;658;48.820;9.354;2023-05-16T19:20:49;23.30;47.90
1329;DHT22;658;48.820;9.354;2023-05-16T19:24:52;23.30;47.90
1329;DHT22;658;48.820;9.354;2023-05-16T19:28:53;23.30;47.90
1329;DHT22;658;48.820;9.354;2023-05-16T19:32:54;23.30;47.90
1329;DHT22;658;48.820;9.354;2023-05-16T19:36:54;23.30;47.90
1329;DHT22;658;48.820;9.354;2023-05-16T19:40:55;23.30;47.80
1329;DHT22;658;48.820;9.354;2023-05-16T19:44:56;23.30;47.80
1329;DHT22;658;48.820;9.354;2023-05-16T19:48:57;23.30;47.80
1329;DHT22;658;48.820;9.354;2023-05-16T19:52:58;23.30;47.70
1329;DHT22;658;48.820;9.354;2023-05-16T19:56:58;23.30;47.90
1329;DHT22;658;48.820;9.354;2023-05-16T20:00:59;23.30;47.70
1329;DHT22;658;48.820;9.354;2023-05-16T20:05:00;23.40;47.70
1329;DHT22;658;48.820;9.354;2023-05-16T20:09:01;23.40;47.70
1329;DHT22;658;48.820;9.354;2023-05-16T20:13:01;23.30;47.60
1329;DHT22;658;48.820;9.354;2023-05-16T20:17:02;23.40;47.80
1329;DHT22;658;48.820;9.354;2023-05-16T20:21:03;23.30;47.70
1329;DHT22;658;48.820;9.354;2023-05-16T20:25:05;23.30;47.70
1329;DHT22;658;48.820;9.354;2023-05-16T20:29:06;23.30;47.60
1329;DHT22;658;48.820;9.354;2023-05-16T20:33:06;23.30;47.70
1329;DHT22;658;48.820;9.354;2023-05-16T20:37:07;23.30;47.70
1329;DHT22;658;48.820;9.354;2023-05-16T20:41:08;23.20;47.60
1329;DHT22;658;48.820;9.354;2023-05-16T20:45:08;23.20;47.60
1329;DHT22;658;48.820;9.354;2023-05-16T20:49:09;23.10;47.70
1329;DHT22;658;48.820;9.354;2023-05-16T20:53:10;23.10;47.70
1329;DHT22;658;48.820;9.354;2023-05-16T20:57:11;23.00;47.70
1329;DHT22;658;48.820;9.354;2023-05-16T21:01:11;23.00;47.80
1329;DHT22;658;48.820;9.354;2023-05-16T21:05:12;22.90;47.80
1329;DHT22;658;48.820;9.354;2023-05-16T21:09:12;22.90;47.80
1329;DHT22;658;48.820;9.354;2023-05-16T21:13:13;22.90;47.80
1329;DHT22;658;48.820;9.354;2023-05-16T21:17:14;22.90;47.90
1329;DHT22;658;48.820;9.354;2023-05-16T21:21:14;22.80;47.90
1329;DHT22;658;48.820;9.354;2023-05-16T21:25:15;22.80;47.80
1329;DHT22;658;48.820;9.354;2023-05-16T21:29:16;22.80;47.90
1329;DHT22;658;48.820;9.354;2023-05-16T21:33:16;22.70;47.90
1329;DHT22;658;48.820;9.354;2023-05-16T21:37:17;22.70;47.90
1329;DHT22;658;48.820;9.354;2023-05-16T21:41:18;22.70;48.00
1329;DHT22;658;48.820;9.354;2023-05-16T21:45:19;22.60;47.80
1329;DHT22;658;48.820;9.354;2023-05-16T21:49:20;22.60;47.90
1329;DHT22;658;48.820;9.354;2023-05-16T21:53:21;22.60;47.90
1329;DHT22;658;48.820;9.354;2023-05-16T21:57:23;22.60;48.00
1329;DHT22;658;48.820;9.354;2023-05-16T22:01:23;22.60;47.90
1329;DHT22;658;48.820;9.354;2023-05-16T22:05:25;22.50;47.90
1329;DHT22;658;48.820;9.354;2023-05-16T22:09:26;22.50;47.80
1329;DHT22;658;48.820;9.354;2023-05-16T22:13:26;22.50;47.90
1329;DHT22;658;48.820;9.354;2023-05-16T22:17:27;22.50;47.90
1329;DHT22;658;48.820;9.354;2023-05-16T22:21:27;22.50;47.90
1329;DHT22;658;48.820;9.354;2023-05-16T22:25:28;22.40;47.80
1329;DHT22;658;48.820;9.354;2023-05-16T22:29:29;22.40;47.80
1329;DHT22;658;48.820;9.354;2023-05-16T22:33:30;22.40;47.80
1329;DHT22;658;48.820;9.354;2023-05-16T22:37:31;22.40;47.80
1329;DHT22;658;48.820;9.354;2023-05-16T22:41:31;22.40;47.80
1329;DHT22;658;48.820;9.354;2023-05-16T22:45:32;22.30;47.80
1329;DHT22;658;48.820;9.354;2023-05-16T22:49:33;22.30;47.80
1329;DHT22;658;48.820;9.354;2023-05-16T22:53:33;22.30;47.80
1329;DHT22;658;48.820;9.354;2023-05-16T22:57:34;22.30;47.80
1329;DHT22;658;48.820;9.354;2023-05-16T23:01:35;22.30;47.80
1329;DHT22;658;48.820;9.354;2023-05-16T23:05:35;22.30;47.80
1329;DHT22;658;48.820;9.354;2023-05-16T23:09:36;22.30;47.80
1329;DHT22;658;48.820;9.354;2023-05-16T23:13:37;22.30;47.90
1329;DHT22;658;48.820;9.354;2023-05-16T23:17:37;22.20;47.80
1329;DHT22;658;48.820;9.354;2023-05-16T23:21:38;22.20;47.80
1329;DHT22;658;48.820;9.354;2023-05-16T23:25:39;22.20;47.80
1329;DHT22;658;48.820;9.354;2023-05-16T23:29:40;22.20;47.80
1329;DHT22;658;48.820;9.354;2023-05-16T23:33:40;22.20;47.80
1329;DHT22;658;48.820;9.354;2023-05-16T23:37:41;22.10;47.70
1329;DHT22;658;48.820;9.354;2023-05-16T23:41:42;22.10;48.30
1329;DHT22;658;48.820;9.354;2023-05-16T23:45:42;22.10;47.60
1329;DHT22;658;48.820;9.354;2023-05-16T23:49:43;22.10;47.60
1329;DHT22;658;48.820;9.354;2023-05-16T23:53:46;22.10;47.60
1329;DHT22;658;48.820;9.354;2023-05-16T23:57:46;22.10;47.70
